Time;durP1;ratioP1;P1;durP2;ratioP2;P2;SDS_P1;SDS_P2;PMS_P1;PMS_P2;Temp;Humidity;BMP_temperature;BMP_pressure;BME280_temperature;BME280_humidity;BME280_pressure;Samples;Min_cycle;Max_cycle;Signal;HPM_P1;HPM_P2
2021/03/26 00:00:42;;;;;;;9.23;3.67;;;;;;;10.38;56.67;101951.53;5046159;28;20132;-79
2021/03/26 00:03:14;;;;;;;8.43;3.90;;;;;;;10.37;56.67;101948.00;5036974;28;20057;-79
2021/03/26 00:05:42;;;;;;;9.45;4.28;;;;;;;10.28;56.57;101954.16;5041286;28;20039;-79
2021/03/26 00:08:10;;;;;;;12.43;5.13;;;;;;;10.24;56.88;101947.06;5036556;28;20044;-79
2021/03/26 00:10:37;;;;;;;12.80;4.72;;;;;;;10.22;56.87;101946.22;5037367;28;20068;-79
2021/03/26 00:13:03;;;;;;;9.35;3.95;;;;;;;10.17;57.12;101950.63;5041890;28;20033;-80
2021/03/26 00:15:30;;;;;;;11.85;4.72;;;;;;;10.15;57.08;101936.50;5042621;28;20034;-79
2021/03/26 00:17:56;;;;;;;18.60;6.25;;;;;;;10.08;57.33;101934.75;5035908;28;20037;-81
2021/03/26 00:20:23;;;;;;;9.70;4.70;;;;;;;10.02;57.30;101936.50;5043041;28;20029;-83
2021/03/26 00:22:49;;;;;;;10.77;4.28;;;;;;;10.00;57.48;101934.75;5040381;28;20366;-78
2021/03/26 00:25:16;;;;;;;11.85;4.55;;;;;;;9.96;57.55;101935.63;5039888;28;20491;-80
2021/03/26 00:27:42;;;;;;;14.55;4.38;;;;;;;9.97;57.13;101932.09;5045863;28;20041;-80
2021/03/26 00:30:11;;;;;;;11.75;5.10;;;;;;;9.90;57.49;101925.91;5049571;28;20037;-80
2021/03/26 00:32:38;;;;;;;13.73;4.60;;;;;;;9.82;57.68;101927.66;5047244;28;20396;-79
2021/03/26 00:35:09;;;;;;;6.97;4.05;;;;;;;9.83;57.88;101930.34;5046737;28;20472;-82
2021/03/26 00:37:36;;;;;;;8.68;4.50;;;;;;;9.80;57.83;101918.88;5042679;28;20021;-80
2021/03/26 00:40:06;;;;;;;12.27;5.00;;;;;;;9.76;58.29;101927.66;5031750;28;20084;-80
2021/03/26 00:42:32;;;;;;;11.05;4.93;;;;;;;9.71;58.19;101920.59;5034609;28;20116;-78
2021/03/26 00:44:59;;;;;;;11.52;3.97;;;;;;;9.70;57.70;101918.84;5033951;28;20022;-80
2021/03/26 00:47:27;;;;;;;8.00;4.00;;;;;;;9.66;57.96;101917.09;5034091;28;20041;-80
2021/03/26 00:49:53;;;;;;;8.27;4.68;;;;;;;9.62;57.89;101910.03;5017355;28;20121;-79
2021/03/26 00:52:20;;;;;;;8.77;4.40;;;;;;;9.58;58.34;101910.88;5025703;28;20041;-79
2021/03/26 00:54:46;;;;;;;7.95;4.68;;;;;;;9.55;57.98;101905.59;5032888;28;20541;-80
2021/03/26 00:57:13;;;;;;;11.00;4.82;;;;;;;9.52;58.00;101908.22;5032770;28;20091;-81
2021/03/26 00:59:39;;;;;;;9.90;5.35;;;;;;;9.46;58.69;101905.56;5033589;28;20046;-79
2021/03/26 01:02:06;;;;;;;14.93;5.70;;;;;;;9.45;58.85;101906.47;5033949;28;20079;-81
2021/03/26 01:04:39;;;;;;;13.50;6.95;;;;;;;9.53;58.29;101902.97;5035302;28;20044;-85
2021/03/26 01:07:07;;;;;;;14.07;6.20;;;;;;;9.43;58.54;101897.66;5025951;28;20128;-80
2021/03/26 01:09:33;;;;;;;8.13;5.63;;;;;;;9.47;58.09;101891.47;5029841;28;20132;-81
2021/03/26 01:12:00;;;;;;;11.77;6.05;;;;;;;9.43;58.72;101893.22;5032310;28;20048;-80
2021/03/26 01:14:28;;;;;;;16.10;7.20;;;;;;;9.38;58.52;101890.59;5040999;28;20026;-81
2021/03/26 01:16:54;;;;;;;14.35;6.60;;;;;;;9.43;58.33;101884.41;5032951;28;20034;-81
2021/03/26 01:19:30;;;;;;;11.77;6.35;;;;;;;9.42;58.98;101880.00;5034866;28;20088;-79
2021/03/26 01:22:04;;;;;;;18.80;7.88;;;;;;;9.45;58.20;101880.91;5033957;28;20057;-79
2021/03/26 01:24:41;;;;;;;12.82;7.30;;;;;;;9.50;58.52;101875.63;5024608;28;20121;-79
2021/03/26 01:27:13;;;;;;;12.25;6.80;;;;;;;9.40;58.11;101885.31;5026571;28;20033;-79
2021/03/26 01:29:39;;;;;;;10.95;6.80;;;;;;;9.40;58.35;101880.00;5031356;28;20029;-79
2021/03/26 01:32:07;;;;;;;16.40;7.28;;;;;;;9.39;58.01;101872.94;5031014;28;20128;-79
2021/03/26 01:34:33;;;;;;;15.05;7.22;;;;;;;9.39;58.61;101876.50;5032888;28;20091;-81
2021/03/26 01:37:25;;;;;;;13.85;7.32;;;;;;;9.42;58.25;101869.44;5033744;28;20044;-86
2021/03/26 01:39:51;;;;;;;16.75;6.88;;;;;;;9.36;58.08;101872.97;5023029;28;20504;-81
2021/03/26 01:42:25;;;;;;;12.30;6.43;;;;;;;9.41;58.48;101862.38;5031919;28;20029;-80
2021/03/26 01:44:51;;;;;;;16.67;7.57;;;;;;;9.38;58.46;101864.16;5031107;28;20044;-83
2021/03/26 01:47:19;;;;;;;13.90;6.68;;;;;;;9.38;58.77;101858.84;5032151;28;20116;-81
2021/03/26 01:49:54;;;;;;;16.85;7.68;;;;;;;9.40;58.25;101861.50;5030687;28;20026;-79
2021/03/26 01:52:21;;;;;;;10.02;6.10;;;;;;;9.38;58.79;101864.16;5031326;28;20041;-81
2021/03/26 01:54:47;;;;;;;12.60;6.95;;;;;;;9.35;59.04;101853.53;5024616;28;20056;-81
2021/03/26 01:57:14;;;;;;;15.38;7.25;;;;;;;9.43;58.41;101850.03;5031536;28;20037;-81
2021/03/26 01:59:41;;;;;;;10.75;6.82;;;;;;;9.40;58.76;101840.34;5032484;28;20112;-81
2021/03/26 02:02:14;;;;;;;13.00;7.57;;;;;;;9.50;58.65;101836.81;5031003;28;20037;-80
2021/03/26 02:04:44;;;;;;;16.98;8.43;;;;;;;9.54;58.34;101840.34;5015863;28;20040;-79
2021/03/26 02:07:11;;;;;;;16.20;7.05;;;;;;;9.52;58.58;101839.44;5031631;28;20124;-80
2021/03/26 02:09:39;;;;;;;10.95;6.78;;;;;;;9.51;58.71;101848.28;5031523;28;20440;-80
2021/03/26 02:12:28;;;;;;;14.70;7.32;;;;;;;9.65;58.19;101840.34;5031729;28;20491;-82
2021/03/26 02:14:58;;;;;;;12.98;7.05;;;;;;;9.66;58.11;101843.00;5012313;28;20045;-81
2021/03/26 02:17:29;;;;;;;14.35;8.02;;;;;;;9.74;58.00;101836.81;5013618;28;20370;-80
2021/03/26 02:22:36;;;;;;;15.25;7.45;;;;;;;9.91;57.94;101832.38;5086141;27;20446;-80
2021/03/26 02:25:08;;;;;;;10.27;6.70;;;;;;;9.96;58.12;101835.91;5067696;28;20024;-79
2021/03/26 02:27:37;;;;;;;11.97;7.50;;;;;;;10.06;57.83;101827.97;5067438;28;20036;-80
2021/03/26 02:30:13;;;;;;;15.60;6.63;;;;;;;10.12;58.06;101825.28;5067273;28;20028;-79
2021/03/26 02:32:41;;;;;;;15.63;7.30;;;;;;;10.14;58.21;101828.81;5067370;28;20067;-80
2021/03/26 02:37:51;;;;;;;10.85;6.72;;;;;;;10.23;58.48;101810.25;5107884;27;20873;-79
2021/03/26 02:40:28;;;;;;;14.55;7.13;;;;;;;10.32;58.23;101814.66;5107985;28;20050;-78
2021/03/26 02:43:07;;;;;;;13.82;7.45;;;;;;;10.32;58.31;101807.56;5107897;28;20040;-79
2021/03/26 02:45:40;;;;;;;13.27;7.35;;;;;;;10.40;58.64;101812.00;5096225;28;20872;-79
2021/03/26 02:48:14;;;;;;;13.05;8.13;;;;;;;10.51;58.24;101807.53;5088356;28;20039;-79
2021/03/26 02:51:05;;;;;;;12.75;8.57;;;;;;;10.65;58.19;101804.81;5100283;28;20048;-79
2021/03/26 02:53:57;;;;;;;14.73;9.07;;;;;;;10.61;58.52;101805.72;5095431;28;20125;-79
2021/03/26 02:56:50;;;;;;;18.75;10.45;;;;;;;10.65;58.38;101808.38;5099308;28;20081;-79
2021/03/26 02:59:40;;;;;;;19.92;10.45;;;;;;;10.83;58.17;101804.72;5104807;28;20377;-81
2021/03/26 03:02:10;;;;;;;20.08;11.85;;;;;;;10.74;58.81;101803.88;5089592;28;20032;-80
2021/03/26 03:04:44;;;;;;;21.27;12.90;;;;;;;10.80;59.30;101802.09;5106268;28;20031;-79
2021/03/26 03:07:18;;;;;;;22.58;12.43;;;;;;;10.88;59.73;101798.50;5090588;28;20031;-80
2021/03/26 03:09:48;;;;;;;25.75;13.38;;;;;;;10.93;58.99;101802.91;5091174;28;20038;-79
2021/03/26 03:12:27;;;;;;;25.77;15.30;;;;;;;10.96;59.31;101805.53;5100408;28;20024;-82
2021/03/26 03:15:03;;;;;;;25.33;15.30;;;;;;;10.96;59.70;101799.34;5091490;28;20032;-79
2021/03/26 03:20:35;;;;;;;32.00;16.70;;;;;;;11.10;59.39;101791.28;5067127;27;20365;-80
2021/03/26 03:23:15;;;;;;;29.27;16.58;;;;;;;11.12;59.33;101793.03;5063783;28;20044;-80
2021/03/26 03:25:42;;;;;;;28.13;17.30;;;;;;;11.13;59.43;101791.28;5066446;28;20372;-79
2021/03/26 03:28:32;;;;;;;31.83;18.60;;;;;;;11.27;59.75;101788.53;5062632;28;20124;-79
2021/03/26 03:31:24;;;;;;;30.50;18.15;;;;;;;11.27;59.79;101784.09;5066346;28;20037;-80
2021/03/26 03:37:28;;;;;;;32.58;18.48;;;;;;;11.28;59.76;101777.91;5109825;27;20367;-79
2021/03/26 03:43:08;;;;;;;33.13;18.42;;;;;;;11.26;60.33;101781.47;5088174;28;20396;-83
2021/03/26 03:45:44;;;;;;;31.73;20.20;;;;;;;11.25;60.48;101777.94;5067878;28;20555;-79
2021/03/26 03:48:32;;;;;;;33.80;19.55;;;;;;;11.22;60.77;101762.03;5063163;28;20527;-80
2021/03/26 03:51:07;;;;;;;32.03;20.02;;;;;;;11.24;60.80;101773.53;5056479;28;20402;-80
2021/03/26 03:53:49;;;;;;;32.15;19.13;;;;;;;11.24;61.11;101768.22;5050529;28;20102;-79
2021/03/26 04:02:05;;;;;;;36.53;21.30;;;;;;;11.21;61.50;101765.56;5107278;27;20120;-79
2021/03/26 04:04:42;;;;;;;35.65;20.85;;;;;;;11.27;61.31;101767.31;5070077;28;20033;-79
2021/03/26 04:07:17;;;;;;;38.15;21.38;;;;;;;11.31;61.18;101754.00;5073807;28;20032;-80
2021/03/26 04:09:53;;;;;;;33.30;20.35;;;;;;;11.31;61.12;101759.31;5087940;28;20020;-79
2021/03/26 04:12:27;;;;;;;36.60;21.60;;;;;;;11.28;61.34;101751.38;5068115;28;20029;-80
2021/03/26 04:20:26;;;;;;;38.03;22.08;;;;;;;11.28;61.37;101750.50;5036851;28;20915;-79
2021/03/26 04:23:02;;;;;;;38.78;22.27;;;;;;;11.34;61.05;101755.75;5022652;28;20076;-79
2021/03/26 04:25:33;;;;;;;41.30;22.30;;;;;;;11.26;61.34;101750.50;5014271;28;20497;-79
2021/03/26 04:28:06;;;;;;;40.65;24.58;;;;;;;11.35;61.20;101743.34;4998607;28;20077;-80
2021/03/26 04:30:37;;;;;;;;;;;;;;;11.39;61.37;101739.78;5028184;28;20100;-81
2021/03/26 04:33:04;;;;;;;41.28;23.13;;;;;;;11.27;61.58;101754.91;5028518;28;19920;-79
2021/03/26 04:35:31;;;;;;;35.25;21.33;;;;;;;11.32;61.03;101745.13;5027900;28;20115;-80
2021/03/26 04:40:50;;;;;;;41.33;22.88;;;;;;;11.30;61.45;101738.97;5086386;27;20892;-80
2021/03/26 04:43:43;;;;;;;36.78;22.77;;;;;;;11.37;61.29;101734.50;5068870;28;20033;-81
2021/03/26 04:46:20;;;;;;;38.15;21.73;;;;;;;11.32;61.32;101738.97;5049891;28;20041;-80
2021/03/26 04:49:11;;;;;;;36.92;21.65;;;;;;;11.32;61.32;101729.22;5062983;28;20037;-80
2021/03/26 04:51:47;;;;;;;36.72;22.30;;;;;;;11.33;61.16;101725.66;5048927;28;20041;-81
2021/03/26 04:54:23;;;;;;;37.80;22.27;;;;;;;11.24;61.62;101727.53;5068071;28;20854;-82
2021/03/26 04:56:57;;;;;;;35.78;21.85;;;;;;;11.26;61.63;101728.41;5068011;28;20063;-80
2021/03/26 04:59:45;;;;;;;35.50;22.45;;;;;;;11.29;61.43;101723.94;5040670;28;20083;-80
2021/03/26 05:02:15;;;;;;;42.30;23.38;;;;;;;11.26;61.40;101725.75;5063570;28;20045;-81
2021/03/26 05:04:44;;;;;;;36.97;21.13;;;;;;;11.26;61.40;101721.31;5057368;28;20030;-80
2021/03/26 05:07:14;;;;;;;42.88;23.05;;;;;;;11.20;61.50;101718.72;5059108;28;20040;-81
2021/03/26 05:09:45;;;;;;;34.25;21.40;;;;;;;11.26;61.56;101716.00;5047970;28;20061;-81
2021/03/26 05:12:24;;;;;;;39.17;23.67;;;;;;;11.30;61.54;101716.84;5047506;28;20030;-81
2021/03/26 05:14:58;;;;;;;36.80;21.50;;;;;;;11.27;61.20;101715.13;5063180;28;20036;-80
2021/03/26 05:17:35;;;;;;;36.45;21.83;;;;;;;11.26;61.41;101715.13;5057197;28;20029;-79
2021/03/26 05:20:28;;;;;;;40.95;22.30;;;;;;;11.28;61.07;101714.22;5060639;28;20036;-81
2021/03/26 05:23:01;;;;;;;38.13;20.65;;;;;;;11.31;61.15;101716.88;5055252;28;20485;-81
2021/03/26 05:25:34;;;;;;;;;;;;;;;11.45;60.93;101715.84;5052670;28;20048;-82
2021/03/26 05:28:04;;;;;;;40.78;21.52;;;;;;;11.24;61.18;101714.25;5063970;28;19986;-81
2021/03/26 05:30:37;;;;;;;39.70;21.52;;;;;;;11.12;61.59;101720.56;5054769;28;20053;-80
2021/03/26 05:33:14;;;;;;;40.75;21.15;;;;;;;11.18;61.44;101717.84;5058561;28;20029;-80
2021/03/26 05:35:58;;;;;;;40.47;21.90;;;;;;;11.14;61.48;101710.81;5053507;28;20120;-80
2021/03/26 05:38:48;;;;;;;35.85;20.92;;;;;;;11.21;61.48;101709.00;5049960;28;20025;-81
2021/03/26 05:44:37;;;;;;;33.55;19.98;;;;;;;11.27;61.32;101704.50;5108263;27;20726;-80
2021/03/26 05:47:33;;;;;;;31.33;18.60;;;;;;;11.26;61.38;101705.38;5070439;28;20043;-81
2021/03/26 05:56:20;;;;;;;37.55;20.40;;;;;;;11.31;61.08;101700.94;5108430;27;20367;-80
2021/03/26 06:08:26;;;;;;;33.63;17.65;;;;;;;11.41;60.87;101696.41;5121167;27;20365;-86
2021/03/26 06:11:19;;;;;;;34.78;19.60;;;;;;;11.54;60.43;101696.28;5103039;28;20484;-80
2021/03/26 06:16:46;;;;;;;35.47;19.30;;;;;;;11.59;60.59;101700.66;5054689;28;20427;-79
2021/03/26 06:25:17;;;;;;;29.88;17.20;;;;;;;11.70;60.17;101694.34;5070021;27;20415;-78
2021/03/26 06:27:59;;;;;;;30.42;18.38;;;;;;;11.73;60.27;101691.69;5057647;28;20029;-79
2021/03/26 06:30:33;;;;;;;32.55;18.40;;;;;;;11.73;60.33;101697.00;5061499;28;20034;-78
2021/03/26 06:42:04;;;;;;;31.90;17.63;;;;;;;11.65;60.12;101684.66;5078898;28;20431;-80
2021/03/26 06:45:01;;;;;;;27.48;17.73;;;;;;;11.45;60.77;101687.53;5052334;28;20036;-79
2021/03/26 06:53:15;;;;;;;29.30;17.95;;;;;;;11.41;60.26;101676.97;5062701;27;819881;-80
2021/03/26 06:56:11;;;;;;;33.20;17.02;;;;;;;11.41;60.32;101674.31;5054696;28;20078;-79
2021/03/26 06:59:10;;;;;;;29.45;17.25;;;;;;;11.39;60.30;101673.44;5044556;28;20119;-81
2021/03/26 07:01:48;;;;;;;29.80;17.25;;;;;;;11.37;60.00;101677.91;5051665;28;20113;-81
2021/03/26 07:07:53;;;;;;;31.13;17.60;;;;;;;11.32;60.33;101685.91;5090219;27;20122;-79
2021/03/26 07:19:14;;;;;;;31.75;17.27;;;;;;;11.27;60.75;101682.41;5108748;27;20355;-80
2021/03/26 07:22:09;;;;;;;28.42;16.48;;;;;;;11.32;60.89;101686.75;5087781;28;20040;-80
2021/03/26 07:25:10;;;;;;;31.23;17.25;;;;;;;11.44;60.50;101692.84;5108571;28;20028;-81
2021/03/26 07:30:51;;;;;;;34.20;18.08;;;;;;;11.35;61.21;101679.69;5084911;27;20356;-80
2021/03/26 07:33:23;;;;;;;32.72;18.60;;;;;;;11.47;60.85;101690.16;5081002;28;20041;-81
2021/03/26 07:42:05;;;;;;;31.02;18.10;;;;;;;11.86;60.33;101687.97;5078649;27;20860;-81
2021/03/26 07:47:43;;;;;;;33.20;18.23;;;;;;;11.92;59.77;101692.34;5078229;28;20907;-81
2021/03/26 07:53:28;;;;;;;34.60;18.88;;;;;;;12.05;59.12;101695.75;5080847;27;20409;-85
2021/03/26 08:04:57;;;;;;;34.15;17.80;;;;;;;12.36;58.95;101693.59;5076078;27;20787;-82
2021/03/26 08:10:34;;;;;;;31.25;15.77;;;;;;;12.48;58.67;101681.88;5111293;27;20420;-84
2021/03/26 08:22:20;;;;;;;27.63;14.10;;;;;;;12.76;57.18;101677.03;5077625;27;20402;-85
2021/03/26 08:25:15;;;;;;;30.70;15.60;;;;;;;12.57;57.13;101692.41;5063769;28;20127;-86
2021/03/26 08:28:10;;;;;;;24.67;15.35;;;;;;;12.89;56.55;101687.47;5047946;28;20041;-86
2021/03/26 08:31:16;;;;;;;30.63;15.77;;;;;;;13.00;56.08;101695.28;5050141;28;20053;-86
2021/03/26 08:34:13;;;;;;;24.63;14.57;;;;;;;13.22;55.13;101686.03;5047094;28;20037;-85
2021/03/26 08:36:47;;;;;;;26.48;14.63;;;;;;;12.94;55.84;101689.16;5049672;28;20029;-85
2021/03/26 08:45:19;;;;;;;25.75;13.95;;;;;;;13.32;54.55;101680.53;5080988;27;20410;-82
2021/03/26 08:48:16;;;;;;;27.33;14.88;;;;;;;13.55;54.82;101672.16;5066744;28;20025;-82
2021/03/26 08:59:45;;;;;;;24.95;13.90;;;;;;;13.65;54.28;101671.06;5128293;27;20350;-82
2021/03/26 09:02:46;;;;;;;25.17;13.35;;;;;;;13.98;53.53;101667.75;5128218;28;20086;-82
2021/03/26 09:05:52;;;;;;;24.38;15.05;;;;;;;14.18;54.01;101672.66;5128612;28;20087;-81
2021/03/26 09:08:42;;;;;;;24.33;14.13;;;;;;;14.23;53.88;101670.75;5129309;28;20031;-83
2021/03/26 09:11:38;;;;;;;26.75;13.30;;;;;;;14.32;53.35;101659.03;5128873;28;20042;-82
2021/03/26 09:17:35;;;;;;;21.95;13.13;;;;;;;14.40;52.42;101678.38;5108410;27;20371;-81
2021/03/26 09:20:27;;;;;;;23.75;13.13;;;;;;;14.74;52.19;101664.28;5109588;27;20024;-81
2021/03/26 09:23:23;;;;;;;24.55;13.70;;;;;;;14.77;52.15;101666.03;5069061;28;20040;-80
2021/03/26 09:26:06;;;;;;;20.15;12.60;;;;;;;14.57;51.43;101662.88;5082164;28;20036;-80
2021/03/26 09:28:40;;;;;;;23.92;12.82;;;;;;;14.74;51.48;101652.75;5067400;28;20119;-80
2021/03/26 09:31:16;;;;;;;22.60;12.63;;;;;;;14.61;51.69;101661.00;5084395;28;20094;-80
2021/03/26 09:34:04;;;;;;;23.25;10.88;;;;;;;15.03;51.56;101654.69;5107561;28;20089;-80
2021/03/26 09:36:40;;;;;;;21.63;10.88;;;;;;;14.97;51.15;101646.84;5100511;28;20050;-81
2021/03/26 09:39:10;;;;;;;18.92;10.20;;;;;;;15.06;50.45;101646.59;5090924;28;20036;-82
2021/03/26 09:41:49;;;;;;;18.45;10.65;;;;;;;15.36;50.56;101646.69;5083113;28;20063;-82
2021/03/26 09:50:01;;;;;;;16.17;9.40;;;;;;;15.40;48.31;101636.81;5078601;27;20405;-80
2021/03/26 09:52:32;;;;;;;19.25;8.93;;;;;;;15.48;48.41;101634.81;5065120;28;20025;-81
2021/03/26 09:58:36;;;;;;;19.45;7.55;;;;;;;15.64;46.49;101636.13;5057027;28;20459;-80
2021/03/26 10:01:16;;;;;;;15.10;6.80;;;;;;;15.67;46.54;101637.84;5045180;28;20045;-81
2021/03/26 10:06:56;;;;;;;13.82;7.00;;;;;;;15.89;46.07;101621.19;5079670;27;20359;-82
2021/03/26 10:09:38;;;;;;;13.85;6.80;;;;;;;16.10;45.18;101617.00;5065311;28;20037;-81
2021/03/26 10:12:16;;;;;;;12.38;6.03;;;;;;;16.27;44.27;101627.19;5035214;28;20029;-81
2021/03/26 10:15:04;;;;;;;11.70;5.93;;;;;;;16.18;44.14;101605.16;5068561;28;20108;-81
2021/03/26 10:20:51;;;;;;;9.77;6.03;;;;;;;16.58;44.16;101596.78;5089635;28;20405;-81
2021/03/26 10:23:58;;;;;;;15.00;5.72;;;;;;;16.70;44.12;101599.03;5070229;28;20454;-81
2021/03/26 10:26:50;;;;;;;14.30;6.32;;;;;;;16.60;43.41;101586.91;5050590;28;20033;-80
2021/03/26 10:29:43;;;;;;;8.60;5.22;;;;;;;16.57;43.23;101589.66;5043371;28;20045;-81
2021/03/26 10:32:17;;;;;;;9.82;3.90;;;;;;;15.93;42.61;101617.53;5037127;28;20047;-82
2021/03/26 10:34:44;;;;;;;8.70;3.90;;;;;;;15.71;43.07;101617.25;5047440;28;20112;-80
2021/03/26 10:43:21;;;;;;;6.82;3.55;;;;;;;15.39;43.05;101603.91;5067819;28;20361;-80
2021/03/26 10:46:12;;;;;;;5.72;3.38;;;;;;;15.46;43.78;101608.13;5057702;28;20043;-80
2021/03/26 10:49:02;;;;;;;14.50;4.13;;;;;;;15.59;43.45;101606.00;5049653;28;20455;-80
2021/03/26 10:54:52;;;;;;;8.60;3.60;;;;;;;16.01;42.51;101586.97;5082243;28;20435;-80
2021/03/26 10:57:41;;;;;;;7.25;4.07;;;;;;;16.20;41.46;101561.44;5048316;28;20103;-80
2021/03/26 11:00:31;;;;;;;7.45;3.70;;;;;;;16.59;41.44;101574.47;5049832;28;20079;-80
2021/03/26 11:03:03;;;;;;;10.38;3.90;;;;;;;16.78;41.46;101561.31;5037088;28;20492;-80
2021/03/26 11:05:42;;;;;;;7.25;3.97;;;;;;;16.70;41.22;101558.91;5038458;28;20018;-80
2021/03/26 11:08:24;;;;;;;6.35;3.60;;;;;;;16.80;41.10;101556.78;5038637;28;20232;-80
2021/03/26 11:11:05;;;;;;;6.78;3.40;;;;;;;17.05;40.49;101562.19;5039072;28;20105;-80
2021/03/26 11:13:46;;;;;;;7.85;3.60;;;;;;;16.70;40.55;101566.03;5037345;28;20029;-81
2021/03/26 11:16:53;;;;;;;7.50;3.50;;;;;;;17.06;40.59;101547.88;5038553;28;20472;-81
2021/03/26 11:19:29;;;;;;;7.18;3.75;;;;;;;16.98;40.08;101557.97;5035889;28;20080;-81
2021/03/26 11:22:15;;;;;;;9.30;3.45;;;;;;;16.81;39.84;101575.47;5020833;28;20489;-81
2021/03/26 11:24:44;;;;;;;8.05;3.97;;;;;;;16.96;40.28;101541.09;5020704;28;20468;-79
2021/03/26 11:27:25;;;;;;;6.97;3.53;;;;;;;16.65;40.47;101547.50;5020445;28;20022;-79
2021/03/26 11:35:53;;;;;;;7.65;2.92;;;;;;;16.63;40.33;101530.59;5068891;28;20399;-80
2021/03/26 11:38:26;;;;;;;8.13;3.50;;;;;;;17.06;39.67;101531.81;5059232;28;20357;-79
2021/03/26 11:41:15;;;;;;;5.85;3.05;;;;;;;17.01;39.10;101528.44;5058496;28;20604;-81
2021/03/26 11:43:49;;;;;;;8.70;3.15;;;;;;;17.32;39.45;101521.94;5059319;28;20067;-80
2021/03/26 11:46:20;;;;;;;8.18;3.08;;;;;;;17.31;39.15;101512.16;5056527;28;20043;-81
2021/03/26 11:51:40;;;;;;;6.55;2.92;;;;;;;17.28;38.99;101528.31;5058572;27;20402;-81
2021/03/26 12:11:15;;;;;;;5.68;2.60;;;;;;;17.79;37.57;101495.13;5077438;27;20413;-82
2021/03/26 12:13:52;;;;;;;7.32;3.10;;;;;;;17.85;37.56;101510.06;5059574;28;20120;-82
2021/03/26 12:16:23;;;;;;;6.72;3.03;;;;;;;17.73;37.75;101495.38;5064308;28;20029;-82
2021/03/26 12:18:56;;;;;;;7.43;2.88;;;;;;;17.86;37.75;101492.19;5065137;28;20361;-82
2021/03/26 12:24:36;;;;;;;5.78;2.92;;;;;;;18.08;37.79;101495.78;5147183;27;20346;-82
2021/03/26 12:33:09;;;;;;;6.20;3.25;;;;;;;17.57;38.43;101484.38;5052276;28;21129;-80
2021/03/26 12:35:57;;;;;;;7.95;3.40;;;;;;;17.91;38.40;101471.44;5056825;28;20108;-80
2021/03/26 12:41:11;;;;;;;6.32;3.25;;;;;;;17.93;39.10;101477.56;5084255;27;20889;-79
2021/03/26 12:44:02;;;;;;;4.80;3.13;;;;;;;18.07;38.43;101477.94;5066936;28;20021;-80
2021/03/26 12:46:54;;;;;;;8.60;2.42;;;;;;;17.62;37.94;101470.78;5054959;28;20049;-79
2021/03/26 12:49:32;;;;;;;13.02;3.50;;;;;;;17.72;38.05;101487.34;5053683;28;20051;-80
2021/03/26 12:54:47;;;;;;;5.45;2.88;;;;;;;17.59;38.33;101470.91;5064290;27;778492;-80
2021/03/26 12:57:38;;;;;;;4.88;2.90;;;;;;;17.35;38.80;101452.19;5064453;28;20079;-79
2021/03/26 13:02:59;;;;;;;3.60;2.97;;;;;;;17.20;39.70;101458.13;5079508;27;20420;-79
2021/03/26 13:05:29;;;;;;;7.70;3.42;;;;;;;17.34;39.38;101450.44;5040609;28;20060;-80
2021/03/26 13:08:20;;;;;;;10.00;3.17;;;;;;;17.19;39.90;101446.53;5048669;28;20057;-81
2021/03/26 13:10:54;;;;;;;5.80;3.00;;;;;;;17.19;39.76;101451.03;5040816;28;20057;-81
2021/03/26 13:16:19;;;;;;;6.32;3.00;;;;;;;17.48;39.63;101457.06;5062201;28;20827;-81
2021/03/26 13:18:52;;;;;;;6.70;2.90;;;;;;;17.56;39.88;101438.88;5064985;28;20048;-83
2021/03/26 13:21:28;;;;;;;4.97;3.20;;;;;;;17.60;40.06;101438.69;5060080;28;20458;-81
2021/03/26 13:24:03;;;;;;;6.75;2.95;;;;;;;17.72;39.38;101440.00;5050441;28;20076;-79
2021/03/26 13:26:31;;;;;;;7.43;3.72;;;;;;;17.06;39.86;101440.78;5055394;28;20021;-83
2021/03/26 13:29:05;;;;;;;6.68;3.53;;;;;;;17.21;40.45;101436.66;5049495;28;20103;-81
2021/03/26 13:31:37;;;;;;;5.75;3.55;;;;;;;17.19;40.14;101432.28;5058282;28;20472;-81
2021/03/26 13:37:12;;;;;;;6.85;4.00;;;;;;;17.17;40.08;101437.72;5090559;27;20911;-79
2021/03/26 13:42:34;;;;;;;5.45;3.45;;;;;;;17.36;39.36;101421.78;5109381;27;20375;-80
2021/03/26 13:53:11;;;;;;;8.02;2.97;;;;;;;18.00;38.70;101409.41;5080324;27;21135;-80
2021/03/26 13:55:41;;;;;;;5.32;2.88;;;;;;;18.41;38.05;101400.50;5020854;28;20030;-81
2021/03/26 13:58:18;;;;;;;6.72;2.40;;;;;;;18.16;37.40;101406.09;5011452;28;20034;-80
2021/03/26 14:01:08;;;;;;;7.00;2.58;;;;;;;17.91;37.31;101393.69;5010529;28;20030;-80
2021/03/26 14:03:43;;;;;;;6.25;2.60;;;;;;;17.92;37.68;101403.47;5041849;28;20107;-82
2021/03/26 14:06:18;;;;;;;6.18;2.70;;;;;;;17.80;37.30;101394.13;5028202;28;20069;-81
2021/03/26 14:08:59;;;;;;;4.53;2.40;;;;;;;17.81;37.34;101384.25;5028317;28;20029;-80
2021/03/26 14:11:48;;;;;;;2.92;2.30;;;;;;;17.83;37.65;101382.41;5027916;28;20511;-81
2021/03/26 14:17:04;;;;;;;6.13;2.00;;;;;;;17.89;36.83;101369.59;5070820;27;20405;-82
2021/03/26 14:19:55;;;;;;;5.68;2.20;;;;;;;17.90;37.02;101367.81;5070864;28;20043;-81
2021/03/26 14:22:26;;;;;;;9.30;5.78;;;;;;;17.94;37.66;101361.41;5070475;28;20057;-80
2021/03/26 14:25:04;;;;;;;37.47;23.75;;;;;;;17.63;38.03;101366.22;5070329;28;20033;-80
2021/03/26 14:33:34;;;;;;;4.97;2.65;;;;;;;17.67;38.71;101364.28;5069486;28;20372;-79
2021/03/26 14:36:16;;;;;;;9.77;2.40;;;;;;;17.53;38.30;101350.59;5062565;28;20047;-79
2021/03/26 14:38:56;;;;;;;7.00;2.50;;;;;;;17.52;38.73;101346.16;5056270;28;20400;-81
2021/03/26 14:41:31;;;;;;;4.50;2.58;;;;;;;17.30;39.26;101350.56;5058764;28;20022;-79
2021/03/26 14:44:06;;;;;;;4.25;2.30;;;;;;;17.24;39.64;101350.81;5051365;28;20049;-80
2021/03/26 14:46:43;;;;;;;11.45;3.30;;;;;;;17.49;39.97;101344.47;5064718;28;20449;-82
2021/03/26 14:49:19;;;;;;;6.88;2.90;;;;;;;17.55;39.18;101340.69;5065258;28;20032;-80
2021/03/26 14:51:50;;;;;;;3.65;2.53;;;;;;;17.33;39.28;101344.22;5055152;28;20127;-80
2021/03/26 14:54:32;;;;;;;6.47;2.58;;;;;;;17.45;38.74;101335.69;5057569;28;20351;-79
2021/03/26 14:57:07;;;;;;;5.00;2.03;;;;;;;17.62;38.82;101331.47;5065201;28;20048;-81
2021/03/26 15:00:03;;;;;;;4.55;2.28;;;;;;;17.45;38.11;101338.38;5059225;28;20601;-81
2021/03/26 15:02:44;;;;;;;4.22;2.03;;;;;;;17.57;38.89;101336.13;5058441;28;20029;-80
2021/03/26 15:05:30;;;;;;;2.80;2.10;;;;;;;17.57;38.89;101336.13;5067186;28;20110;-79
2021/03/26 15:07:59;;;;;;;5.60;2.25;;;;;;;17.46;38.42;101337.44;5059403;28;20031;-80
2021/03/26 15:13:25;;;;;;;5.25;2.80;;;;;;;17.40;38.17;101308.22;5080664;28;20990;-79
2021/03/26 15:16:18;;;;;;;4.70;2.28;;;;;;;17.63;38.39;101306.38;5019501;28;20040;-80
2021/03/26 15:18:51;;;;;;;;;;;;;;;17.83;37.92;101310.03;5013325;28;20030;-80
2021/03/26 15:27:48;;;;;;;8.68;2.42;;;;;;;18.42;38.19;101295.81;5069875;28;20381;-79
2021/03/26 15:36:08;;;;;;;5.80;2.28;;;;;;;18.87;36.53;101285.69;5078230;27;20408;-81
2021/03/26 15:38:59;;;;;;;2.80;2.45;;;;;;;19.11;35.88;101281.91;5068858;28;20533;-81
2021/03/26 15:41:32;;;;;;;4.43;2.47;;;;;;;18.92;35.98;101289.03;5068061;28;20060;-81
2021/03/26 15:49:46;;;;;;;6.97;3.03;;;;;;;18.07;37.38;101287.56;5061581;28;20513;-81
2021/03/26 15:52:35;;;;;;;4.07;2.20;;;;;;;18.26;37.39;101286.72;5050011;28;20037;-81
2021/03/26 15:55:23;;;;;;;3.83;2.85;;;;;;;18.37;37.77;101276.38;5046885;28;20094;-82
2021/03/26 15:58:16;;;;;;;5.90;2.88;;;;;;;18.29;37.13;101277.66;5038672;28;20504;-83
2021/03/26 16:09:45;;;;;;;8.40;2.95;;;;;;;18.11;37.27;101253.44;5078978;28;20958;-82
2021/03/26 16:12:43;;;;;;;6.00;2.90;;;;;;;18.06;38.29;101259.00;5066923;28;20044;-82
2021/03/26 16:15:37;;;;;;;7.43;2.72;;;;;;;18.04;38.20;101260.00;5063741;28;20029;-81
2021/03/26 16:18:43;;;;;;;4.68;2.70;;;;;;;17.95;37.88;101247.88;5049140;28;20132;-81
2021/03/26 16:39:28;;;;;;;5.00;3.10;;;;;;;17.16;39.84;101239.59;5073075;27;20406;-80
2021/03/26 16:50:32;;;;;;;5.63;2.85;;;;;;;17.91;38.76;101222.13;5041307;27;833082;-81
2021/03/26 16:53:38;;;;;;;6.28;3.75;;;;;;;17.94;39.03;101233.63;5070491;28;20033;-81